Time;durP1;ratioP1;P1;durP2;ratioP2;P2;SDS_P1;SDS_P2;PMS_P1;PMS_P2;Temp;Humidity;BMP_temperature;BMP_pressure;BME280_temperature;BME280_humidity;BME280_pressure;Samples;Min_cycle;Max_cycle;Signal;HPM_P1;HPM_P2
2022/08/17 00:01:07;;;;;;;59.90;54.33;;;19.00;99.90;;;;;;4943170;29;20510;-58
2022/08/17 00:03:39;;;;;;;64.53;58.35;;;19.00;99.90;;;;;;4926412;28;20091;-57
2022/08/17 00:06:11;;;;;;;60.97;54.97;;;18.90;99.90;;;;;;4925368;29;20414;-56
2022/08/17 00:08:56;;;;;;;58.00;52.42;;;18.90;99.90;;;;;;4924416;29;20552;-54
2022/08/17 00:11:36;;;;;;;50.03;45.65;;;18.90;99.90;;;;;;4929557;29;20173;-56
2022/08/17 00:14:13;;;;;;;49.70;45.22;;;18.80;99.90;;;;;;4939447;28;20086;-55
2022/08/17 00:16:46;;;;;;;49.35;44.75;;;18.80;99.90;;;;;;4942746;28;20055;-56
2022/08/17 00:19:14;;;;;;;53.15;48.03;;;18.70;99.90;;;;;;4932287;28;20558;-56
2022/08/17 00:21:45;;;;;;;55.17;49.50;;;18.70;99.90;;;;;;4926075;29;20059;-57
2022/08/17 00:24:12;;;;;;;54.13;49.22;;;18.60;99.90;;;;;;4916969;29;20056;-57
2022/08/17 00:26:38;;;;;;;52.45;47.75;;;18.50;99.90;;;;;;4926189;28;20048;-59
2022/08/17 00:29:13;;;;;;;54.03;49.10;;;18.60;99.90;;;;;;4917372;29;20052;-57
2022/08/17 00:31:40;;;;;;;56.35;50.65;;;18.50;99.90;;;;;;4917369;29;20062;-55
2022/08/17 00:34:08;;;;;;;43.25;39.35;;;18.50;99.90;;;;;;4921384;28;20348;-55
2022/08/17 00:36:35;;;;;;;40.92;37.10;;;18.50;99.90;;;;;;4907238;29;20056;-57
2022/08/17 00:39:03;;;;;;;37.72;34.10;;;18.50;99.90;;;;;;4906218;29;20888;-55
2022/08/17 00:41:29;;;;;;;38.00;34.60;;;18.40;99.90;;;;;;4908396;29;20067;-55
2022/08/17 00:43:59;;;;;;;43.88;39.80;;;18.40;99.90;;;;;;4906894;28;20158;-56
2022/08/17 00:46:33;;;;;;;103.57;42.20;;;18.40;99.90;;;;;;4941006;29;20095;-55
2022/08/17 00:48:59;;;;;;;197.23;40.20;;;18.30;99.90;;;;;;4906879;28;20052;-55
2022/08/17 00:51:47;;;;;;;352.45;40.05;;;18.10;99.90;;;;;;4907138;29;20147;-56
2022/08/17 00:54:27;;;;;;;131.30;25.50;;;17.90;99.90;;;;;;4924715;29;20070;-56
2022/08/17 00:56:58;;;;;;;26.40;24.27;;;17.80;99.90;;;;;;4908762;28;20062;-55
2022/08/17 00:59:34;;;;;;;29.55;26.65;;;17.80;99.90;;;;;;4905350;29;20067;-56
2022/08/17 01:02:01;;;;;;;43.67;38.83;;;17.80;99.90;;;;;;4902368;29;20059;-55
2022/08/17 01:04:36;;;;;;;59.00;53.17;;;17.80;99.90;;;;;;4915532;29;20158;-55
2022/08/17 01:07:04;;;;;;;58.38;52.55;;;17.90;99.90;;;;;;4919900;29;20052;-54
2022/08/17 01:09:32;;;;;;;48.35;43.97;;;17.90;99.90;;;;;;4924794;29;20511;-55
2022/08/17 01:12:07;;;;;;;243.40;50.90;;;18.00;99.90;;;;;;4921183;29;20063;-56
2022/08/17 01:14:43;;;;;;;46.53;42.03;;;18.00;99.90;;;;;;4924370;29;20059;-56
2022/08/17 01:17:09;;;;;;;45.80;38.65;;;18.00;99.90;;;;;;4921544;28;20048;-54
2022/08/17 01:19:39;;;;;;;122.60;42.95;;;18.00;99.90;;;;;;4923834;29;20056;-56
2022/08/17 01:22:11;;;;;;;45.13;41.05;;;18.10;99.90;;;;;;4923791;29;20601;-56
2022/08/17 01:24:43;;;;;;;47.65;43.10;;;18.10;99.90;;;;;;4919317;29;20056;-56
2022/08/17 01:27:12;;;;;;;53.58;48.13;;;18.20;99.90;;;;;;4906909;29;20078;-53
2022/08/17 01:29:42;;;;;;;63.30;55.95;;;18.20;99.90;;;;;;4907590;29;20063;-56
2022/08/17 01:32:08;;;;;;;72.38;58.83;;;18.30;99.90;;;;;;4904460;29;20059;-54
2022/08/17 01:34:35;;;;;;;161.82;59.55;;;18.40;99.90;;;;;;4905729;29;20628;-56
2022/08/17 01:37:00;;;;;;;162.90;55.08;;;18.40;99.90;;;;;;4905639;29;20048;-56
2022/08/17 01:39:29;;;;;;;190.90;54.60;;;18.50;99.90;;;;;;4914126;29;20114;-55
2022/08/17 01:42:04;;;;;;;315.60;55.40;;;18.50;99.90;;;;;;4903784;29;20521;-56
2022/08/17 01:44:31;;;;;;;82.35;52.92;;;18.50;99.90;;;;;;4914995;29;20048;-55
2022/08/17 01:46:58;;;;;;;107.63;50.47;;;18.50;99.90;;;;;;4921228;29;20044;-55
2022/08/17 01:49:24;;;;;;;205.63;53.88;;;18.60;99.90;;;;;;4905640;29;20056;-54
2022/08/17 01:51:50;;;;;;;228.05;51.97;;;18.40;99.90;;;;;;4984832;28;20051;-55
2022/08/17 01:54:18;;;;;;;220.43;51.42;;;18.30;99.90;;;;;;4923966;29;20155;-55
2022/08/17 01:56:48;;;;;;;99.03;46.53;;;18.20;99.90;;;;;;4924893;29;20094;-53
2022/08/17 01:59:15;;;;;;;189.60;49.97;;;18.20;99.90;;;;;;4909625;29;20691;-51
2022/08/17 02:01:42;;;;;;;446.20;55.75;;;18.20;99.90;;;;;;4904776;29;20087;-52
2022/08/17 02:04:08;;;;;;;280.85;55.08;;;18.00;99.90;;;;;;4913951;29;20506;-53
2022/08/17 02:06:38;;;;;;;65.30;48.58;;;17.90;99.90;;;;;;4924759;28;20043;-51
2022/08/17 02:09:06;;;;;;;61.00;48.10;;;18.00;99.90;;;;;;4923879;29;20040;-52
2022/08/17 02:11:36;;;;;;;348.88;54.17;;;17.90;99.90;;;;;;4919266;29;20151;-51
2022/08/17 02:14:03;;;;;;;219.05;51.53;;;17.90;99.90;;;;;;4938480;28;20098;-51
2022/08/17 02:16:36;;;;;;;148.52;54.00;;;18.00;99.90;;;;;;4924389;29;20066;-48
2022/08/17 02:19:05;;;;;;;;;;;17.90;99.90;;;;;;4916340;29;20047;-52
2022/08/17 02:21:31;;;;;;;116.75;48.00;;;17.90;99.90;;;;;;4923109;29;20374;-50
2022/08/17 02:23:58;;;;;;;119.38;50.42;;;17.80;99.90;;;;;;4923208;28;20056;-51
2022/08/17 02:26:24;;;;;;;62.15;46.20;;;17.90;99.90;;;;;;4922980;29;20400;-51
2022/08/17 02:28:52;;;;;;;104.80;48.95;;;17.80;99.90;;;;;;4916464;29;20135;-50
2022/08/17 02:31:18;;;;;;;79.45;46.72;;;17.80;99.90;;;;;;4920982;29;20067;-52
2022/08/17 02:33:44;;;;;;;113.25;48.28;;;17.90;99.90;;;;;;4922496;29;20067;-53
2022/08/17 02:36:12;;;;;;;136.07;47.85;;;17.80;99.90;;;;;;4904656;28;20087;-50
2022/08/17 02:38:39;;;;;;;91.35;45.60;;;17.80;99.90;;;;;;4905091;29;20055;-52
2022/08/17 02:41:06;;;;;;;58.15;44.20;;;17.80;99.90;;;;;;4929713;28;20374;-53
2022/08/17 02:43:32;;;;;;;113.22;47.10;;;17.80;99.90;;;;;;4942414;28;20529;-54
2022/08/17 02:45:57;;;;;;;51.75;46.33;;;17.90;99.90;;;;;;4942736;29;20051;-48
2022/08/17 02:48:24;;;;;;;51.50;45.28;;;17.90;99.90;;;;;;4943336;28;20055;-52
2022/08/17 02:50:50;;;;;;;51.83;45.15;;;17.90;99.90;;;;;;4940956;28;20120;-52
2022/08/17 02:53:15;;;;;;;72.88;45.17;;;17.90;99.90;;;;;;4939978;28;20059;-51
2022/08/17 02:55:42;;;;;;;158.55;48.80;;;18.00;99.90;;;;;;4948499;28;20052;-49
2022/08/17 02:58:12;;;;;;;55.83;43.30;;;18.00;99.90;;;;;;4962457;28;20054;-52
2022/08/17 03:00:46;;;;;;;119.85;47.63;;;18.00;99.90;;;;;;4962219;28;20417;-50
2022/08/17 03:03:19;;;;;;;74.80;45.28;;;18.00;99.90;;;;;;4943100;28;20062;-50
2022/08/17 03:05:47;;;;;;;72.40;45.38;;;18.00;99.90;;;;;;4943046;28;20047;-53
2022/08/17 03:08:14;;;;;;;123.78;47.60;;;18.00;99.90;;;;;;4959213;28;20067;-49
2022/08/17 03:10:41;;;;;;;108.55;48.35;;;18.00;99.90;;;;;;4960526;28;20059;-51
2022/08/17 03:13:07;;;;;;;127.32;49.53;;;18.00;99.90;;;;;;4937672;29;20525;-50
2022/08/17 03:15:34;;;;;;;91.60;47.05;;;18.00;99.90;;;;;;4942070;28;20055;-50
2022/08/17 03:18:11;;;;;;;132.93;49.60;;;17.90;99.90;;;;;;4958361;28;20046;-52
2022/08/17 03:20:37;;;;;;;57.20;47.15;;;18.00;99.90;;;;;;4961112;28;20528;-50
2022/08/17 03:23:04;;;;;;;79.93;46.90;;;17.90;99.90;;;;;;4954605;28;20047;-49
2022/08/17 03:25:36;;;;;;;68.40;44.92;;;18.00;99.90;;;;;;4943488;28;20054;-50
2022/08/17 03:28:03;;;;;;;243.07;53.00;;;18.00;99.90;;;;;;4942312;28;20495;-49
2022/08/17 03:30:30;;;;;;;67.25;46.65;;;18.00;99.90;;;;;;4957519;28;20494;-52
2022/08/17 03:32:58;;;;;;;74.63;47.88;;;18.00;99.90;;;;;;4962732;28;20050;-51
2022/08/17 03:35:28;;;;;;;56.38;46.95;;;18.10;99.90;;;;;;4945828;28;20089;-50
2022/08/17 03:37:55;;;;;;;90.53;46.80;;;18.10;99.90;;;;;;4966313;28;20054;-51
2022/08/17 03:40:22;;;;;;;145.55;49.53;;;18.10;99.90;;;;;;4964606;28;20062;-52
2022/08/17 03:42:51;;;;;;;68.95;46.67;;;18.20;99.90;;;;;;4964112;28;20063;-54
2022/08/17 03:56:40;;;;;;;129.80;50.05;;;18.20;99.90;;;;;;4949528;28;20066;-49
2022/08/17 03:56:43;;;;;;;148.88;49.90;;;18.20;99.90;;;;;;4944644;28;20101;-51
2022/08/17 03:59:16;;;;;;;136.95;51.60;;;18.30;99.90;;;;;;4946077;28;20636;-52
2022/08/17 04:01:46;;;;;;;;;;;18.30;99.90;;;;;;4946072;28;20051;-53
2022/08/17 04:04:12;;;;;;;170.00;49.50;;;18.20;99.90;;;;;;4944133;29;19926;-51
2022/08/17 04:06:40;;;;;;;101.07;49.03;;;18.20;99.90;;;;;;4938473;28;20051;-55
2022/08/17 04:09:06;;;;;;;107.15;49.70;;;18.20;99.90;;;;;;4983025;28;20050;-56
2022/08/17 04:11:34;;;;;;;97.07;48.75;;;18.20;99.90;;;;;;4956670;28;20059;-53
2022/08/17 04:14:01;;;;;;;88.20;48.70;;;18.10;99.90;;;;;;4945098;28;20055;-55
2022/08/17 04:16:28;;;;;;;90.30;49.70;;;18.00;99.90;;;;;;4944679;28;20055;-53
2022/08/17 04:18:53;;;;;;;67.82;47.63;;;18.10;99.90;;;;;;4955904;28;20524;-52
2022/08/17 04:21:21;;;;;;;70.10;47.50;;;18.10;99.90;;;;;;4957699;28;20137;-51
2022/08/17 04:23:46;;;;;;;60.30;45.20;;;18.00;99.90;;;;;;4944902;29;20051;-55
2022/08/17 04:26:13;;;;;;;60.28;46.50;;;18.00;99.90;;;;;;4943221;28;20484;-53
2022/08/17 04:28:40;;;;;;;48.63;44.22;;;17.90;99.90;;;;;;4936914;28;20185;-52
2022/08/17 04:31:08;;;;;;;44.92;39.95;;;18.00;99.90;;;;;;4944873;28;20065;-52
2022/08/17 04:33:36;;;;;;;45.70;41.28;;;18.00;99.90;;;;;;4945352;28;20055;-54
2022/08/17 04:36:06;;;;;;;47.65;42.90;;;18.10;99.90;;;;;;4943811;28;20146;-53
2022/08/17 04:38:38;;;;;;;53.55;42.90;;;18.10;99.90;;;;;;4944080;28;20059;-52
2022/08/17 04:43:54;;;;;;;84.50;44.20;;;18.20;99.90;;;;;;4945529;28;20570;-54
2022/08/17 04:46:31;;;;;;;66.45;45.40;;;18.10;99.90;;;;;;4951504;28;20314;-50
2022/08/17 04:48:58;;;;;;;71.30;46.60;;;18.10;99.90;;;;;;4948284;28;20690;-52
2022/08/17 04:51:29;;;;;;;81.30;47.70;;;18.10;99.90;;;;;;4936281;28;20054;-50
2022/08/17 04:54:00;;;;;;;70.47;47.83;;;18.10;99.90;;;;;;4963509;28;20568;-53
2022/08/17 04:56:28;;;;;;;59.40;45.08;;;18.10;99.90;;;;;;4950575;28;20048;-53
2022/08/17 04:58:57;;;;;;;114.65;52.10;;;18.00;99.90;;;;;;4943869;28;20035;-50
2022/08/17 05:01:26;;;;;;;99.10;48.78;;;18.10;99.90;;;;;;4945040;28;20066;-53
2022/08/17 05:04:00;;;;;;;87.97;50.40;;;18.10;99.90;;;;;;4939228;28;20047;-52
2022/08/17 05:06:28;;;;;;;52.13;46.53;;;18.10;99.90;;;;;;4943083;28;20510;-49
2022/08/17 05:08:54;;;;;;;67.30;48.15;;;18.10;99.90;;;;;;4943817;28;20047;-52
2022/08/17 05:11:24;;;;;;;52.75;47.05;;;18.20;99.90;;;;;;4939644;29;20997;-52
2022/08/17 05:13:53;;;;;;;72.03;45.28;;;18.10;99.90;;;;;;4944294;28;20154;-51
2022/08/17 05:16:21;;;;;;;59.65;45.92;;;18.20;99.90;;;;;;4943996;28;20079;-54
2022/08/17 05:18:47;;;;;;;84.80;49.63;;;18.30;99.90;;;;;;4954923;28;20164;-52
2022/08/17 05:21:14;;;;;;;49.58;44.53;;;18.30;99.90;;;;;;4978219;28;20066;-52
2022/08/17 05:23:41;;;;;;;52.83;47.72;;;18.30;99.90;;;;;;4963999;28;20809;-54
2022/08/17 05:26:09;;;;;;;52.63;47.35;;;18.30;99.90;;;;;;4943987;28;20051;-50
2022/08/17 05:28:34;;;;;;;51.00;45.70;;;18.40;99.90;;;;;;4944290;28;20043;-55
2022/08/17 05:31:02;;;;;;;51.35;46.38;;;18.40;99.90;;;;;;4952030;28;20104;-53
2022/08/17 05:33:32;;;;;;;53.92;48.47;;;18.40;99.90;;;;;;4942302;28;20117;-52
2022/08/17 05:36:00;;;;;;;50.78;46.20;;;18.50;99.90;;;;;;4958176;28;20531;-53
2022/08/17 05:38:28;;;;;;;53.60;47.92;;;18.50;99.90;;;;;;4962213;28;20094;-49
2022/08/17 05:40:54;;;;;;;53.65;48.58;;;18.50;99.90;;;;;;4942331;28;20099;-50
2022/08/17 05:43:24;;;;;;;56.80;51.30;;;18.60;99.90;;;;;;4935404;29;20418;-54
2022/08/17 05:46:17;;;;;;;57.30;51.28;;;18.60;99.90;;;;;;4943228;28;20137;-55
2022/08/17 05:49:09;;;;;;;55.67;49.88;;;18.70;99.90;;;;;;4943733;28;20055;-53
2022/08/17 05:52:06;;;;;;;52.35;47.30;;;18.80;99.90;;;;;;4953850;28;20059;-52
2022/08/17 05:54:44;;;;;;;57.00;51.53;;;18.80;99.90;;;;;;4934635;29;20147;-50
2022/08/17 05:57:21;;;;;;;59.03;53.17;;;18.80;99.90;;;;;;4944120;28;20917;-53
2022/08/17 05:59:53;;;;;;;57.10;51.67;;;18.80;99.90;;;;;;4943217;28;20051;-53
2022/08/17 06:02:52;;;;;;;55.42;50.22;;;18.90;99.90;;;;;;4943126;28;20062;-52
2022/08/17 06:05:42;;;;;;;57.33;51.83;;;18.80;99.90;;;;;;4949058;28;20103;-49
2022/08/17 06:08:30;;;;;;;57.05;51.55;;;18.90;99.90;;;;;;4949317;28;20055;-50
2022/08/17 06:11:31;;;;;;;62.22;55.85;;;18.80;99.90;;;;;;4959314;28;20112;-54
2022/08/17 06:14:15;;;;;;;57.60;51.97;;;18.90;99.90;;;;;;4972740;28;20062;-49
2022/08/17 06:16:46;;;;;;;63.58;57.08;;;18.90;99.90;;;;;;4966327;28;20121;-54
2022/08/17 06:19:22;;;;;;;63.22;56.53;;;19.00;99.90;;;;;;4966235;28;20058;-53
2022/08/17 06:21:52;;;;;;;66.25;59.10;;;19.00;99.90;;;;;;4982365;28;20054;-52
2022/08/17 06:24:35;;;;;;;65.43;58.78;;;19.00;99.90;;;;;;4981230;28;20418;-51
2022/08/17 06:27:24;;;;;;;;;;;19.00;99.90;;;;;;4966489;28;20137;-53
2022/08/17 06:30:01;;;;;;;70.90;62.85;;;19.00;99.90;;;;;;4904949;29;19927;-54
2022/08/17 06:32:28;;;;;;;67.05;59.97;;;19.10;99.90;;;;;;4904541;29;20063;-51
2022/08/17 06:34:54;;;;;;;70.80;62.88;;;19.00;99.90;;;;;;4910888;29;20066;-52
2022/08/17 06:37:48;;;;;;;63.92;57.80;;;19.10;99.90;;;;;;4910706;29;20520;-51
2022/08/17 06:40:23;;;;;;;65.53;59.00;;;19.10;99.90;;;;;;4904015;29;20080;-51
2022/08/17 06:42:52;;;;;;;65.45;58.28;;;19.10;99.90;;;;;;4904233;29;20059;-51
2022/08/17 06:45:34;;;;;;;61.00;54.95;;;19.20;99.90;;;;;;4909401;29;20130;-51
2022/08/17 06:48:27;;;;;;;65.78;59.17;;;19.20;99.90;;;;;;4923750;29;20417;-51
2022/08/17 06:51:08;;;;;;;61.17;55.08;;;19.30;99.90;;;;;;4896610;29;20211;-52
2022/08/17 06:53:58;;;;;;;63.72;57.15;;;19.30;99.90;;;;;;4886906;29;20060;-51
2022/08/17 06:56:52;;;;;;;61.72;55.35;;;19.40;99.90;;;;;;4886330;28;20579;-56
2022/08/17 06:59:25;;;;;;;66.05;59.33;;;19.40;99.90;;;;;;4902998;29;20048;-49
2022/08/17 07:01:52;;;;;;;63.85;57.25;;;19.40;99.90;;;;;;4899908;29;20388;-56
2022/08/17 07:04:28;;;;;;;61.75;55.42;;;19.50;99.90;;;;;;4892143;29;20056;-51
2022/08/17 07:10:19;;;;;;;71.60;63.38;;;19.30;99.90;;;;;;4960885;28;20615;-51
2022/08/17 07:12:47;;;;;;;70.45;63.03;;;19.30;99.90;;;;;;4958943;28;20055;-50
2022/08/17 07:15:28;;;;;;;74.53;64.68;;;19.30;99.90;;;;;;4959425;28;20170;-52
2022/08/17 07:17:54;;;;;;;74.72;66.85;;;19.40;99.90;;;;;;4954939;28;20048;-52
2022/08/17 07:20:21;;;;;;;76.28;64.85;;;19.50;99.90;;;;;;4959647;28;20063;-54
2022/08/17 07:23:05;;;;;;;73.22;65.78;;;19.60;99.90;;;;;;4958689;28;20714;-54
2022/08/17 07:25:31;;;;;;;71.80;64.57;;;19.80;99.90;;;;;;4950522;28;20168;-56
2022/08/17 07:28:01;;;;;;;73.63;66.15;;;20.00;99.90;;;;;;4927076;28;20418;-53
2022/08/17 07:30:28;;;;;;;72.25;65.07;;;19.90;99.90;;;;;;4943909;28;20062;-54
2022/08/17 07:32:59;;;;;;;71.85;64.43;;;20.00;99.90;;;;;;4938897;29;20047;-50
2022/08/17 07:35:38;;;;;;;80.00;71.28;;;19.90;99.90;;;;;;4939518;29;20067;-50
2022/08/17 07:38:28;;;;;;;75.05;67.18;;;19.90;99.90;;;;;;4923447;29;20136;-55
2022/08/17 07:41:00;;;;;;;68.85;62.20;;;20.00;99.90;;;;;;4929019;28;20600;-53
2022/08/17 07:43:34;;;;;;;69.90;62.97;;;20.00;99.90;;;;;;4941879;28;20098;-52
2022/08/17 07:49:11;;;;;;;66.70;60.15;;;20.00;99.90;;;;;;4942316;28;20047;-54
2022/08/17 07:51:44;;;;;;;65.20;58.55;;;19.90;99.90;;;;;;4939861;28;20528;-52
2022/08/17 07:54:21;;;;;;;68.35;61.45;;;20.00;99.90;;;;;;4941952;28;20063;-51
2022/08/17 07:56:56;;;;;;;65.32;58.75;;;20.10;99.90;;;;;;4942026;28;20062;-52
2022/08/17 07:59:41;;;;;;;64.30;57.92;;;20.00;99.90;;;;;;4958293;28;20055;-50
2022/08/17 08:02:58;;;;;;;62.70;56.50;;;20.00;99.90;;;;;;4940546;28;20406;-51
2022/08/17 08:05:27;;;;;;;67.55;60.88;;;20.00;99.90;;;;;;4999995;28;20212;-50
2022/08/17 08:08:14;;;;;;;64.70;58.47;;;20.00;99.90;;;;;;5000397;28;20172;-49
2022/08/17 08:11:09;;;;;;;66.82;59.83;;;20.00;99.90;;;;;;4999541;28;20666;-50
2022/08/17 08:13:41;;;;;;;80.45;63.80;;;20.00;99.90;;;;;;4981941;28;20105;-49
2022/08/17 08:16:13;;;;;;;70.47;63.15;;;20.00;99.90;;;;;;4979409;28;20387;-51
2022/08/17 08:18:49;;;;;;;71.43;63.97;;;19.90;99.90;;;;;;4980482;28;20141;-49
2022/08/17 08:21:40;;;;;;;70.55;63.33;;;20.00;99.90;;;;;;4981287;28;20058;-48
2022/08/17 08:24:38;;;;;;;60.88;55.38;;;19.90;99.90;;;;;;4997444;28;20045;-51
2022/08/17 08:27:17;;;;;;;64.07;57.75;;;19.90;99.90;;;;;;4984929;28;20060;-49
2022/08/17 08:29:54;;;;;;;63.58;57.55;;;19.90;99.90;;;;;;4995344;28;20074;-51
2022/08/17 08:32:35;;;;;;;48.78;44.30;;;19.90;99.90;;;;;;4967898;28;20066;-53
2022/08/17 08:35:30;;;;;;;40.40;37.00;;;19.70;99.90;;;;;;4966972;28;20050;-52
2022/08/17 08:38:12;;;;;;;42.60;38.85;;;19.60;99.90;;;;;;4999749;28;20069;-49
2022/08/17 08:40:50;;;;;;;43.25;39.65;;;19.50;99.90;;;;;;4944252;28;20113;-51
2022/08/17 08:43:22;;;;;;;49.50;45.15;;;19.50;99.90;;;;;;4941795;28;20060;-50
2022/08/17 08:46:15;;;;;;;47.70;43.50;;;19.60;99.90;;;;;;4951221;28;20043;-51
2022/08/17 08:49:08;;;;;;;50.88;46.30;;;19.50;99.90;;;;;;4963174;28;20294;-51
2022/08/17 08:52:03;;;;;;;53.30;48.35;;;19.50;99.90;;;;;;4964157;28;20059;-50
2022/08/17 08:54:42;;;;;;;54.90;49.67;;;19.60;99.90;;;;;;4935837;28;20118;-53
2022/08/17 08:57:22;;;;;;;60.35;54.67;;;19.70;99.90;;;;;;4948668;28;20066;-53
2022/08/17 09:00:13;;;;;;;60.05;54.38;;;19.90;99.90;;;;;;4963724;28;20055;-52
2022/08/17 09:02:45;;;;;;;61.53;55.75;;;20.00;99.90;;;;;;4953346;28;20572;-51
2022/08/17 09:05:51;;;;;;;63.08;57.28;;;20.20;99.90;;;;;;4941573;28;20062;-52
2022/08/17 09:08:47;;;;;;;58.75;53.28;;;20.30;99.90;;;;;;4943039;29;20048;-54
2022/08/17 09:11:34;;;;;;;62.80;56.88;;;20.40;99.90;;;;;;4926821;28;20110;-54
2022/08/17 09:14:36;;;;;;;63.72;57.63;;;20.50;99.90;;;;;;4935092;29;20054;-52
2022/08/17 09:17:11;;;;;;;62.47;56.38;;;20.50;99.90;;;;;;5002786;28;20054;-49
2022/08/17 09:20:00;;;;;;;64.85;58.40;;;20.50;99.90;;;;;;4948504;28;20063;-52
2022/08/17 09:22:42;;;;;;;64.28;57.70;;;20.60;99.90;;;;;;4943319;28;20409;-51
2022/08/17 09:25:15;;;;;;;62.00;56.20;;;20.60;99.90;;;;;;4944838;28;20054;-49
2022/08/17 09:28:15;;;;;;;64.72;58.40;;;20.60;99.90;;;;;;4925940;28;20522;-48
2022/08/17 09:30:55;;;;;;;62.38;56.45;;;20.50;99.90;;;;;;4924335;29;20047;-50
2022/08/17 09:33:25;;;;;;;67.05;60.22;;;20.50;99.90;;;;;;4928118;29;20527;-52
2022/08/17 09:36:20;;;;;;;66.75;59.95;;;20.50;99.90;;;;;;4941082;29;20055;-51
2022/08/17 09:38:55;;;;;;;65.05;59.10;;;20.40;99.90;;;;;;4950723;28;20065;-52
2022/08/17 09:41:21;;;;;;;69.95;63.40;;;20.40;99.90;;;;;;4943583;28;20059;-52
2022/08/17 09:43:53;;;;;;;71.63;65.00;;;20.60;99.90;;;;;;4943637;29;20071;-51
2022/08/17 09:46:28;;;;;;;75.93;68.47;;;20.80;99.90;;;;;;4944704;28;20066;-49
2022/08/17 09:49:21;;;;;;;66.18;60.08;;;21.00;99.90;;;;;;4944938;28;20478;-49
2022/08/17 09:52:18;;;;;;;63.92;58.20;;;21.40;99.90;;;;;;5021988;28;20054;-49
2022/08/17 09:54:44;;;;;;;64.32;58.45;;;21.60;99.90;;;;;;5004216;28;20065;-50
2022/08/17 09:57:41;;;;;;;62.10;56.55;;;21.60;99.90;;;;;;5004605;28;20058;-52
2022/08/17 10:00:27;;;;;;;59.25;53.65;;;21.60;99.90;;;;;;5015813;28;20092;-49
2022/08/17 10:03:18;;;;;;;62.00;56.38;;;21.40;99.90;;;;;;5004744;28;20061;-50
2022/08/17 10:06:11;;;;;;;56.30;51.40;;;21.30;99.90;;;;;;5016154;28;20568;-52
2022/08/17 10:08:51;;;;;;;57.25;51.92;;;21.40;99.90;;;;;;5001079;28;20133;-49
2022/08/17 10:14:31;;;;;;;56.67;51.38;;;21.50;99.90;;;;;;5000247;28;20133;-51
2022/08/17 10:17:07;;;;;;;55.00;49.83;;;21.40;99.90;;;;;;5001848;28;20543;-52
2022/08/17 10:19:52;;;;;;;54.42;49.65;;;21.30;99.90;;;;;;5018887;28;20165;-52
2022/08/17 10:28:21;;;;;;;40.00;36.20;;;21.30;99.90;;;;;;4990003;28;20098;-49
2022/08/17 10:30:55;;;;;;;42.75;39.13;;;21.40;99.90;;;;;;4939807;28;20134;-51
2022/08/17 10:33:26;;;;;;;41.03;37.42;;;21.30;99.90;;;;;;4934678;29;20051;-51
2022/08/17 10:36:27;;;;;;;38.45;35.35;;;21.40;99.90;;;;;;4958333;28;20066;-53
2022/08/17 10:39:36;;;;;;;38.45;35.25;;;21.60;99.90;;;;;;4954917;28;20075;-51
2022/08/17 10:42:27;;;;;;;39.40;36.30;;;21.70;99.90;;;;;;4984203;28;20505;-50
2022/08/17 10:45:16;;;;;;;36.67;33.65;;;21.70;99.90;;;;;;5001272;28;20093;-53
2022/08/17 10:48:35;;;;;;;34.67;31.77;;;21.90;99.90;;;;;;4999956;28;20073;-50
2022/08/17 10:51:39;;;;;;;29.05;26.30;;;22.00;99.90;;;;;;4984964;28;20592;-50
2022/08/17 10:54:24;;;;;;;28.55;26.00;;;22.10;99.90;;;;;;5003359;28;20058;-54
2022/08/17 10:56:53;;;;;;;29.40;26.88;;;22.30;99.90;;;;;;4981122;28;20134;-53
2022/08/17 10:59:34;;;;;;;26.55;24.25;;;22.40;99.90;;;;;;4975659;28;20085;-49
2022/08/17 11:02:03;;;;;;;25.90;23.83;;;22.30;99.90;;;;;;5000480;28;20716;-51
2022/08/17 11:05:01;;;;;;;24.77;22.85;;;22.30;99.90;;;;;;4999620;28;20764;-51
2022/08/17 11:07:51;;;;;;;21.80;19.85;;;22.10;99.90;;;;;;4945368;28;20490;-53
2022/08/17 11:10:54;;;;;;;21.27;19.52;;;22.30;99.90;;;;;;4961235;28;20133;-53
2022/08/17 11:13:47;;;;;;;22.35;20.15;;;22.30;99.90;;;;;;4961412;28;20046;-52
2022/08/17 11:16:46;;;;;;;20.00;18.30;;;22.30;99.90;;;;;;4961094;28;20139;-52
2022/08/17 11:19:44;;;;;;;19.25;17.75;;;22.30;99.90;;;;;;4901883;29;20071;-54
2022/08/17 11:22:32;;;;;;;17.20;15.80;;;22.50;99.90;;;;;;4901485;28;20123;-50
2022/08/17 11:25:21;;;;;;;15.82;14.52;;;22.70;99.90;;;;;;4887326;29;20064;-51
2022/08/17 11:28:13;;;;;;;18.55;16.95;;;22.80;99.90;;;;;;4886121;29;20231;-54
2022/08/17 11:30:47;;;;;;;19.40;17.42;;;22.80;99.90;;;;;;4902715;29;20063;-50
2022/08/17 11:33:28;;;;;;;21.45;19.38;;;22.90;99.90;;;;;;4870922;29;20065;-52
2022/08/17 11:36:02;;;;;;;22.65;20.58;;;22.90;99.90;;;;;;4902702;28;20115;-53
2022/08/17 11:38:57;;;;;;;22.98;20.95;;;23.10;99.90;;;;;;4907438;29;20143;-53
2022/08/17 11:41:40;;;;;;;22.38;20.50;;;23.10;99.90;;;;;;4897470;29;20056;-49
2022/08/17 11:44:44;;;;;;;23.08;21.38;;;23.30;99.90;;;;;;4908619;29;20071;-50
2022/08/17 11:53:39;;;;;;;21.98;19.98;;;23.70;99.90;;;;;;4925805;28;20142;-55
2022/08/17 11:56:45;;;;;;;21.17;19.23;;;23.90;99.90;;;;;;4925942;29;20059;-55
2022/08/17 11:59:38;;;;;;;24.60;22.23;;;23.70;99.90;;;;;;4924896;29;20422;-53
2022/08/17 12:02:26;;;;;;;25.52;23.35;;;23.60;99.90;;;;;;4926598;29;20109;-53
2022/08/17 12:05:15;;;;;;;26.30;24.15;;;23.50;99.90;;;;;;4926771;29;20060;-54
2022/08/17 12:08:20;;;;;;;28.48;26.00;;;23.60;99.90;;;;;;4925134;29;20051;-52
2022/08/17 12:11:07;;;;;;;26.45;24.05;;;23.60;99.90;;;;;;4973674;28;20214;-53
2022/08/17 12:13:51;;;;;;;27.83;25.50;;;23.40;99.90;;;;;;4906822;29;20060;-55
2022/08/17 12:16:20;;;;;;;27.63;25.50;;;23.40;99.90;;;;;;4906430;29;20048;-53
2022/08/17 12:18:57;;;;;;;30.25;27.73;;;23.30;99.90;;;;;;4905056;29;20155;-54
2022/08/17 12:21:31;;;;;;;31.80;29.20;;;23.30;99.90;;;;;;4888565;29;20071;-55
2022/08/17 12:24:05;;;;;;;30.65;27.98;;;23.30;99.90;;;;;;4888129;29;20044;-49
2022/08/17 12:26:34;;;;;;;28.38;25.90;;;23.30;99.90;;;;;;4904351;29;20064;-55
2022/08/17 12:29:13;;;;;;;30.17;27.67;;;23.30;99.90;;;;;;4905221;29;20060;-55
2022/08/17 12:31:47;;;;;;;30.83;27.80;;;23.40;99.90;;;;;;4914883;29;20095;-53
2022/08/17 12:34:24;;;;;;;29.58;26.67;;;23.30;99.90;;;;;;4890487;28;20146;-55
2022/08/17 12:36:53;;;;;;;28.35;25.95;;;23.10;99.90;;;;;;4901180;29;20066;-55
2022/08/17 12:39:22;;;;;;;29.70;27.05;;;23.10;99.90;;;;;;4920634;29;20147;-55
2022/08/17 12:41:51;;;;;;;28.60;26.20;;;23.00;99.90;;;;;;4889012;28;20062;-53
2022/08/17 12:44:17;;;;;;;30.67;27.83;;;23.10;99.90;;;;;;4908032;28;20098;-52
2022/08/17 12:47:06;;;;;;;28.15;25.85;;;23.10;99.90;;;;;;4914546;29;20056;-54
2022/08/17 12:49:38;;;;;;;30.42;27.70;;;23.10;99.90;;;;;;4929096;29;20566;-53
2022/08/17 12:52:16;;;;;;;31.83;29.08;;;23.00;99.90;;;;;;4917498;29;20063;-53
2022/08/17 12:55:09;;;;;;;32.15;29.50;;;23.00;99.90;;;;;;4926955;29;20054;-53
2022/08/17 12:57:40;;;;;;;32.03;29.05;;;22.80;99.90;;;;;;4918716;29;20062;-54
2022/08/17 13:00:20;;;;;;;31.05;28.15;;;22.90;99.90;;;;;;4927001;29;20484;-52
2022/08/17 13:02:52;;;;;;;32.67;29.90;;;23.00;99.90;;;;;;4944851;28;20162;-55
2022/08/17 13:05:35;;;;;;;31.05;28.27;;;23.00;99.90;;;;;;4944313;29;20101;-52
2022/08/17 13:08:12;;;;;;;;;;;23.10;99.90;;;;;;4930408;28;20056;-54
2022/08/17 13:10:38;;;;;;;33.67;30.67;;;23.10;99.90;;;;;;4932286;28;19976;-54
2022/08/17 13:13:25;;;;;;;35.30;31.90;;;23.20;99.90;;;;;;4926595;28;20056;-54
2022/08/17 13:16:03;;;;;;;33.85;31.25;;;23.10;99.90;;;;;;4928160;29;20056;-54
2022/08/17 13:18:47;;;;;;;33.72;31.02;;;23.00;99.90;;;;;;4924617;29;20078;-54
2022/08/17 13:21:22;;;;;;;32.95;30.10;;;22.90;99.90;;;;;;4939947;29;20502;-53
2022/08/17 13:23:59;;;;;;;31.50;28.90;;;22.80;99.90;;;;;;4945506;28;20055;-54
2022/08/17 13:27:02;;;;;;;32.20;29.48;;;22.80;99.90;;;;;;4925422;29;20162;-54
2022/08/17 13:29:43;;;;;;;35.95;32.85;;;22.70;99.90;;;;;;4923705;29;20506;-53
2022/08/17 13:32:21;;;;;;;34.05;31.23;;;22.50;99.90;;;;;;4919018;29;20054;-55
2022/08/17 13:34:53;;;;;;;37.92;34.70;;;22.50;99.90;;;;;;4909003;29;20056;-54
2022/08/17 13:37:28;;;;;;;35.70;32.70;;;22.40;99.90;;;;;;4924827;29;20093;-56
2022/08/17 13:40:07;;;;;;;36.20;33.00;;;22.30;99.90;;;;;;4932524;29;20533;-54
2022/08/17 13:42:46;;;;;;;35.22;32.40;;;22.40;99.90;;;;;;5022056;28;20128;-55
2022/08/17 13:45:46;;;;;;;33.65;30.65;;;22.60;99.90;;;;;;5006516;28;20042;-53